createdAt,value
2016-08-31T00:00:13.560Z,0
2016-08-31T00:01:13.259Z,0
2016-08-31T00:02:13.254Z,0
2016-08-31T00:03:13.244Z,0
2016-08-31T00:04:13.238Z,0
2016-08-31T00:05:13.739Z,0
2016-08-31T00:06:13.228Z,0
2016-08-31T00:07:13.223Z,0
2016-08-31T00:08:13.203Z,0
2016-08-31T00:09:13.222Z,0
2016-08-31T00:10:13.181Z,0
2016-08-31T00:11:13.900Z,0
2016-08-31T00:12:13.193Z,0
2016-08-31T00:13:13.165Z,0
2016-08-31T00:14:13.171Z,0
2016-08-31T00:15:13.147Z,0
2016-08-31T00:16:13.138Z,0
2016-08-31T00:17:13.134Z,0
2016-08-31T00:18:13.150Z,0
2016-08-31T00:19:13.826Z,0
2016-08-31T00:20:13.676Z,0
2016-08-31T00:21:13.113Z,0
2016-08-31T00:22:13.091Z,0
2016-08-31T00:23:13.089Z,0
2016-08-31T00:24:13.076Z,0
2016-08-31T00:25:13.135Z,0
2016-08-31T00:26:13.057Z,0
2016-08-31T00:27:13.071Z,0
2016-08-31T00:28:13.032Z,0
2016-08-31T00:29:13.041Z,0
2016-08-31T00:30:13.059Z,0
2016-08-31T00:31:13.033Z,0
2016-08-31T00:32:13.025Z,0
2016-08-31T00:33:13.011Z,0
2016-08-31T00:34:12.986Z,0
2016-08-31T00:35:12.978Z,0
2016-08-31T00:36:13.047Z,0
2016-08-31T00:37:12.961Z,0
2016-08-31T00:38:12.971Z,0
2016-08-31T00:39:12.950Z,0
2016-08-31T00:40:13.109Z,0
2016-08-31T00:41:12.932Z,0
2016-08-31T00:42:12.937Z,0
2016-08-31T00:43:12.927Z,0
2016-08-31T00:44:12.913Z,0
2016-08-31T00:45:12.911Z,0
2016-08-31T00:46:12.893Z,0
2016-08-31T00:47:12.887Z,0
2016-08-31T00:48:12.881Z,0
2016-08-31T00:49:12.884Z,0
2016-08-31T00:50:12.857Z,0
2016-08-31T00:51:13.610Z,0
2016-08-31T00:52:12.850Z,0
2016-08-31T00:53:12.851Z,0
2016-08-31T00:54:12.826Z,0
2016-08-31T00:55:13.095Z,0
2016-08-31T00:56:12.819Z,0
2016-08-31T00:57:12.804Z,0
2016-08-31T00:58:12.814Z,0
2016-08-31T00:59:12.786Z,0
2016-08-31T01:00:13.386Z,0
2016-08-31T01:01:12.785Z,0
2016-08-31T01:02:12.770Z,0
2016-08-31T01:03:12.753Z,0
2016-08-31T01:04:12.735Z,0
2016-08-31T01:05:12.787Z,0
2016-08-31T01:06:12.743Z,0
2016-08-31T01:07:12.730Z,0
2016-08-31T01:08:12.708Z,0
2016-08-31T01:09:12.707Z,0
2016-08-31T01:10:13.845Z,0
2016-08-31T01:11:12.701Z,0
2016-08-31T01:12:12.689Z,0
2016-08-31T01:13:12.690Z,0
2016-08-31T01:14:12.672Z,0
2016-08-31T01:15:12.655Z,0
2016-08-31T01:16:12.652Z,0
2016-08-31T01:17:12.640Z,0
2016-08-31T01:18:12.626Z,0
2016-08-31T01:19:12.636Z,0
2016-08-31T01:20:13.158Z,0
2016-08-31T01:21:12.608Z,0
2016-08-31T01:22:12.582Z,0
2016-08-31T01:23:12.593Z,0
2016-08-31T01:24:13.387Z,0
2016-08-31T01:25:13.395Z,0
2016-08-31T01:26:13.290Z,0
2016-08-31T01:27:12.550Z,0
2016-08-31T01:28:12.560Z,0
2016-08-31T01:29:12.534Z,0
2016-08-31T01:30:12.540Z,0
2016-08-31T01:31:12.536Z,0
2016-08-31T01:32:12.520Z,0
2016-08-31T01:33:12.527Z,0
2016-08-31T01:34:12.497Z,0
2016-08-31T01:35:12.496Z,0
2016-08-31T01:36:12.545Z,0
2016-08-31T01:37:12.482Z,0
2016-08-31T01:38:12.465Z,0
2016-08-31T01:39:12.470Z,0
2016-08-31T01:40:12.476Z,0
2016-08-31T01:41:12.441Z,0
2016-08-31T01:42:12.425Z,0
2016-08-31T01:43:12.441Z,0
2016-08-31T01:44:12.417Z,0
2016-08-31T01:45:12.504Z,0
2016-08-31T01:46:12.418Z,0
2016-08-31T01:47:13.120Z,0
2016-08-31T01:48:12.395Z,0
2016-08-31T01:49:12.373Z,0
2016-08-31T01:50:12.375Z,0
2016-08-31T01:51:12.379Z,0
2016-08-31T01:52:12.360Z,0
2016-08-31T01:53:12.342Z,0
2016-08-31T01:54:12.336Z,0
2016-08-31T01:55:12.337Z,0
2016-08-31T01:56:12.326Z,0
2016-08-31T01:57:13.014Z,0
2016-08-31T01:58:12.300Z,0
2016-08-31T01:59:12.306Z,0
2016-08-31T02:00:12.300Z,0
2016-08-31T02:01:12.286Z,0
2016-08-31T02:02:12.993Z,0
2016-08-31T02:03:12.257Z,0
2016-08-31T02:04:12.264Z,0
2016-08-31T02:05:12.258Z,0
2016-08-31T02:06:12.249Z,0
2016-08-31T02:07:12.229Z,0
2016-08-31T02:08:12.228Z,0
2016-08-31T02:09:12.218Z,0
2016-08-31T02:10:12.252Z,0
2016-08-31T02:11:12.194Z,0
2016-08-31T02:12:12.208Z,0
2016-08-31T02:13:13.144Z,0
2016-08-31T02:14:12.170Z,0
2016-08-31T02:15:12.174Z,0
2016-08-31T02:16:12.152Z,0
2016-08-31T02:17:12.157Z,0
2016-08-31T02:18:12.158Z,0
2016-08-31T02:19:12.147Z,0
2016-08-31T02:20:12.153Z,0
2016-08-31T02:21:12.116Z,0
2016-08-31T02:22:12.110Z,0
2016-08-31T02:23:12.101Z,0
2016-08-31T02:24:12.093Z,0
2016-08-31T02:25:12.117Z,0
2016-08-31T02:26:12.087Z,0
2016-08-31T02:27:12.056Z,0
2016-08-31T02:28:12.081Z,0
2016-08-31T02:29:12.763Z,0
2016-08-31T02:30:12.045Z,0
2016-08-31T02:31:12.038Z,0
2016-08-31T02:32:12.032Z,0
2016-08-31T02:33:12.029Z,0
2016-08-31T02:34:12.210Z,0
2016-08-31T02:35:11.996Z,0
2016-08-31T02:36:11.996Z,0
2016-08-31T02:37:11.986Z,0
2016-08-31T02:38:12.061Z,0
2016-08-31T02:39:11.985Z,0
2016-08-31T02:40:11.957Z,0
2016-08-31T02:41:11.957Z,0
2016-08-31T02:42:11.954Z,0
2016-08-31T02:43:11.924Z,0
2016-08-31T02:44:11.951Z,0
2016-08-31T02:45:11.928Z,0
2016-08-31T02:46:11.909Z,0
2016-08-31T02:47:11.897Z,0
2016-08-31T02:48:11.883Z,0
2016-08-31T02:49:11.886Z,0
2016-08-31T02:50:11.924Z,0
2016-08-31T02:51:11.865Z,0
2016-08-31T02:52:11.856Z,0
2016-08-31T02:53:11.882Z,0
2016-08-31T02:54:11.845Z,0
2016-08-31T02:55:11.834Z,0
2016-08-31T02:56:11.817Z,0
2016-08-31T02:57:11.822Z,0
2016-08-31T02:58:12.528Z,0
2016-08-31T02:59:11.797Z,0
2016-08-31T03:00:11.804Z,0
2016-08-31T03:01:11.784Z,0
2016-08-31T03:02:11.775Z,0
2016-08-31T03:03:11.789Z,0
2016-08-31T03:04:11.762Z,0
2016-08-31T03:05:11.741Z,0
2016-08-31T03:06:11.737Z,0
2016-08-31T03:07:11.741Z,0
2016-08-31T03:08:11.728Z,0
2016-08-31T03:09:11.711Z,0
2016-08-31T03:10:11.699Z,0
2016-08-31T03:11:11.694Z,0
2016-08-31T03:12:12.401Z,0
2016-08-31T03:13:11.683Z,0
2016-08-31T03:14:11.674Z,0
2016-08-31T03:15:11.667Z,0
2016-08-31T03:16:11.657Z,0
2016-08-31T03:17:12.371Z,0
2016-08-31T03:18:11.658Z,0
2016-08-31T03:19:11.629Z,0
2016-08-31T03:20:11.621Z,0
2016-08-31T03:21:11.605Z,0
2016-08-31T03:22:11.609Z,0
2016-08-31T03:23:11.592Z,0
2016-08-31T03:24:11.599Z,0
2016-08-31T03:25:11.707Z,0
2016-08-31T03:26:11.575Z,0
2016-08-31T03:27:11.568Z,0
2016-08-31T03:28:12.271Z,0
2016-08-31T03:29:11.541Z,0
2016-08-31T03:30:11.562Z,0
2016-08-31T03:31:12.234Z,0
2016-08-31T03:32:11.556Z,0
2016-08-31T03:33:12.284Z,0
2016-08-31T03:34:11.571Z,0
2016-08-31T03:35:11.577Z,0
2016-08-31T03:36:11.583Z,0
2016-08-31T03:37:11.589Z,0
2016-08-31T03:38:11.495Z,0
2016-08-31T03:39:11.505Z,0
2016-08-31T03:40:11.519Z,0
2016-08-31T03:41:11.513Z,0
2016-08-31T03:42:11.555Z,0
2016-08-31T03:43:11.534Z,0
2016-08-31T03:44:11.478Z,0
2016-08-31T03:45:11.499Z,0
2016-08-31T03:46:11.487Z,0
2016-08-31T03:47:11.494Z,0
2016-08-31T03:48:11.501Z,0
2016-08-31T03:49:11.529Z,0
2016-08-31T03:50:12.085Z,0
2016-08-31T03:51:11.430Z,0
2016-08-31T03:52:11.428Z,4
2016-08-31T03:53:12.049Z,4
2016-08-31T03:54:11.464Z,0
2016-08-31T03:55:11.658Z,4
2016-08-31T03:56:11.465Z,0
2016-08-31T03:57:11.473Z,4
2016-08-31T03:58:11.498Z,4
2016-08-31T03:59:11.491Z,8
2016-08-31T04:00:11.425Z,8
2016-08-31T04:01:11.444Z,8
2016-08-31T04:02:11.978Z,12
2016-08-31T04:03:11.423Z,12
2016-08-31T04:04:11.430Z,16
2016-08-31T04:05:11.963Z,16
2016-08-31T04:06:11.435Z,16
2016-08-31T04:07:11.369Z,20
2016-08-31T04:08:11.382Z,24
2016-08-31T04:09:11.397Z,32
2016-08-31T04:10:11.413Z,36
2016-08-31T04:11:11.415Z,40
2016-08-31T04:12:11.410Z,48
2016-08-31T04:13:11.416Z,56
2016-08-31T04:14:11.431Z,60
2016-08-31T04:15:11.333Z,72
2016-08-31T04:16:11.340Z,80
2016-08-31T04:17:11.342Z,92
2016-08-31T04:18:11.354Z,100
2016-08-31T04:19:11.369Z,112
2016-08-31T04:20:11.517Z,124
2016-08-31T04:21:11.369Z,136
2016-08-31T04:22:11.375Z,148
2016-08-31T04:23:11.254Z,164
2016-08-31T04:24:11.235Z,180
2016-08-31T04:25:11.538Z,196
2016-08-31T04:26:11.238Z,212
2016-08-31T04:27:11.328Z,228
2016-08-31T04:28:11.322Z,244
2016-08-31T04:29:11.316Z,264
2016-08-31T04:30:11.271Z,284
2016-08-31T04:31:11.184Z,300
2016-08-31T04:32:11.223Z,320
2016-08-31T04:33:11.236Z,340
2016-08-31T04:34:11.202Z,360
2016-08-31T04:35:11.191Z,384
2016-08-31T04:36:11.175Z,400
2016-08-31T04:37:11.168Z,424
2016-08-31T04:38:11.190Z,440
2016-08-31T04:39:11.026Z,464
2016-08-31T04:40:11.170Z,484
2016-08-31T04:41:11.044Z,504
2016-08-31T04:42:11.183Z,524
2016-08-31T04:43:11.034Z,548
2016-08-31T04:44:11.024Z,564
2016-08-31T04:45:11.017Z,584
2016-08-31T04:46:10.869Z,604
2016-08-31T04:47:10.879Z,624
2016-08-31T04:48:10.855Z,644
2016-08-31T04:49:10.854Z,664
2016-08-31T04:50:10.857Z,680
2016-08-31T04:51:10.837Z,700
2016-08-31T04:52:10.846Z,716
2016-08-31T04:53:10.827Z,736
2016-08-31T04:54:10.812Z,752
2016-08-31T04:55:11.325Z,772
2016-08-31T04:56:10.792Z,788
2016-08-31T04:57:10.779Z,804
2016-08-31T04:58:10.865Z,824
2016-08-31T04:59:10.761Z,836
2016-08-31T05:00:10.772Z,856
2016-08-31T05:01:10.742Z,868
2016-08-31T05:02:10.740Z,884
2016-08-31T05:03:10.725Z,904
2016-08-31T05:04:11.540Z,916
2016-08-31T05:05:10.706Z,928
2016-08-31T05:06:11.440Z,944
2016-08-31T05:07:10.710Z,960
2016-08-31T05:08:10.691Z,972
2016-08-31T05:09:10.699Z,984
2016-08-31T05:10:10.697Z,996
2016-08-31T05:11:10.688Z,1008
2016-08-31T05:12:10.654Z,1024
2016-08-31T05:13:10.649Z,1036
2016-08-31T05:14:10.639Z,1048
2016-08-31T05:15:11.146Z,1060
2016-08-31T05:16:10.682Z,1072
2016-08-31T05:17:10.614Z,1084
2016-08-31T05:18:10.613Z,1096
2016-08-31T05:19:11.450Z,1104
2016-08-31T05:20:11.350Z,1120
2016-08-31T05:21:10.577Z,1128
2016-08-31T05:22:10.572Z,1140
2016-08-31T05:23:11.382Z,1152
2016-08-31T05:24:10.555Z,1160
2016-08-31T05:25:10.663Z,1172
2016-08-31T05:26:10.578Z,1180
2016-08-31T05:27:10.513Z,1188
2016-08-31T05:28:11.229Z,1196
2016-08-31T05:29:11.248Z,1208
2016-08-31T05:30:11.305Z,1212
2016-08-31T05:31:10.485Z,1224
2016-08-31T05:32:11.348Z,1228
2016-08-31T05:33:10.475Z,1236
2016-08-31T05:34:10.455Z,1244
2016-08-31T05:35:10.855Z,1248
2016-08-31T05:36:10.440Z,1256
2016-08-31T05:37:10.437Z,1264
2016-08-31T05:38:10.449Z,1276
2016-08-31T05:39:10.412Z,1284
2016-08-31T05:40:10.442Z,1288
2016-08-31T05:41:10.401Z,1296
2016-08-31T05:42:10.392Z,1300
2016-08-31T05:43:10.383Z,1308
2016-08-31T05:44:10.386Z,1312
2016-08-31T05:45:10.384Z,1324
2016-08-31T05:46:10.371Z,1324
2016-08-31T05:47:10.344Z,1332
2016-08-31T05:48:10.342Z,1340
2016-08-31T05:49:10.335Z,1348
2016-08-31T05:50:10.387Z,1356
2016-08-31T05:51:10.341Z,1360
2016-08-31T05:52:10.299Z,1364
2016-08-31T05:53:10.302Z,1372
2016-08-31T05:54:10.288Z,1376
2016-08-31T05:55:11.330Z,1384
2016-08-31T05:56:11.262Z,1388
2016-08-31T05:57:10.268Z,1392
2016-08-31T05:58:10.276Z,1404
2016-08-31T05:59:10.329Z,1408
2016-08-31T06:00:10.323Z,1412
2016-08-31T06:01:10.244Z,1420
2016-08-31T06:02:10.227Z,1424
2016-08-31T06:03:10.222Z,1432
2016-08-31T06:04:10.212Z,1436
2016-08-31T06:05:10.340Z,1440
2016-08-31T06:06:10.375Z,1444
2016-08-31T06:07:11.116Z,1452
2016-08-31T06:08:10.183Z,1456
2016-08-31T06:09:10.177Z,1460
2016-08-31T06:10:10.371Z,1460
2016-08-31T06:11:10.168Z,1464
2016-08-31T06:12:10.147Z,1468
2016-08-31T06:13:10.137Z,1472
2016-08-31T06:14:10.134Z,1476
2016-08-31T06:15:10.127Z,1484
2016-08-31T06:16:10.102Z,1488
2016-08-31T06:17:10.117Z,1488
2016-08-31T06:18:10.096Z,1492
2016-08-31T06:19:10.082Z,1496
2016-08-31T06:20:10.080Z,1500
2016-08-31T06:21:10.065Z,1504
2016-08-31T06:22:10.065Z,1508
2016-08-31T06:23:10.069Z,1512
2016-08-31T06:24:10.041Z,1516
2016-08-31T06:25:14.142Z,1520
2016-08-31T06:26:10.025Z,1520
2016-08-31T06:27:10.021Z,1524
2016-08-31T06:28:10.018Z,1528
2016-08-31T06:29:10.004Z,1532
2016-08-31T06:30:10.038Z,1532
2016-08-31T06:31:10.003Z,1540
2016-08-31T06:32:09.983Z,1544
2016-08-31T06:33:09.977Z,1548
2016-08-31T06:34:09.998Z,1548
2016-08-31T06:35:09.960Z,1556
2016-08-31T06:36:09.964Z,1588
2016-08-31T06:37:09.949Z,1756
2016-08-31T06:38:09.943Z,2040
2016-08-31T06:39:09.969Z,2796
2016-08-31T06:40:10.423Z,6648
2016-08-31T06:41:09.919Z,7088
2016-08-31T06:42:09.908Z,2444
2016-08-31T06:43:09.900Z,1884
2016-08-31T06:44:09.940Z,1764
2016-08-31T06:45:10.608Z,1724
2016-08-31T06:46:10.585Z,1848
2016-08-31T06:47:10.623Z,1896
2016-08-31T06:48:10.560Z,1944
2016-08-31T06:49:09.855Z,1944
2016-08-31T06:50:10.675Z,1888
2016-08-31T06:51:09.839Z,2000
2016-08-31T06:52:09.851Z,2088
2016-08-31T06:53:09.810Z,2088
2016-08-31T06:54:09.813Z,2068
2016-08-31T06:55:09.816Z,2048
2016-08-31T06:56:09.796Z,2032
2016-08-31T06:57:10.509Z,2004
2016-08-31T06:58:09.802Z,1940
2016-08-31T06:59:09.781Z,1920
2016-08-31T07:00:12.489Z,1944
2016-08-31T07:01:09.764Z,1952
2016-08-31T07:02:09.782Z,1960
2016-08-31T07:03:09.756Z,1968
2016-08-31T07:04:09.747Z,1960
2016-08-31T07:05:09.748Z,1956
2016-08-31T07:06:09.743Z,1952
2016-08-31T07:07:10.470Z,1948
2016-08-31T07:08:09.719Z,1948
2016-08-31T07:09:09.736Z,1940
2016-08-31T07:10:09.730Z,1936
2016-08-31T07:11:09.712Z,1928
2016-08-31T07:12:09.717Z,1924
2016-08-31T07:13:10.434Z,1908
2016-08-31T07:14:09.715Z,1912
2016-08-31T07:15:09.696Z,1904
2016-08-31T07:16:09.699Z,1904
2016-08-31T07:17:09.687Z,1904
2016-08-31T07:18:09.707Z,1904
2016-08-31T07:19:09.681Z,1908
2016-08-31T07:20:09.695Z,1908
2016-08-31T07:21:09.680Z,1908
2016-08-31T07:22:10.381Z,1904
2016-08-31T07:23:09.672Z,1904
2016-08-31T07:24:09.670Z,1908
2016-08-31T07:25:09.656Z,1904
2016-08-31T07:26:09.683Z,1904
2016-08-31T07:27:09.654Z,1908
2016-08-31T07:28:09.640Z,1904
2016-08-31T07:29:09.639Z,1908
2016-08-31T07:30:09.646Z,1912
2016-08-31T07:31:09.629Z,1908
2016-08-31T07:32:09.634Z,1908
2016-08-31T07:33:09.635Z,1912
2016-08-31T07:34:09.686Z,1916
2016-08-31T07:35:10.703Z,1916
2016-08-31T07:36:09.632Z,1916
2016-08-31T07:37:09.615Z,1916
2016-08-31T07:38:09.617Z,1916
2016-08-31T07:39:09.607Z,1916
2016-08-31T07:40:09.617Z,1920
2016-08-31T07:41:09.747Z,1920
2016-08-31T07:42:09.602Z,1924
2016-08-31T07:43:09.608Z,1924
2016-08-31T07:44:09.608Z,1924
2016-08-31T07:45:09.606Z,1924
2016-08-31T07:46:09.586Z,1928
2016-08-31T07:47:09.893Z,1932
2016-08-31T07:48:10.602Z,1928
2016-08-31T07:49:09.585Z,1936
2016-08-31T07:50:09.588Z,1932
2016-08-31T07:51:09.596Z,1932
2016-08-31T07:52:09.608Z,1936
2016-08-31T07:53:09.590Z,1940
2016-08-31T07:54:09.587Z,1936
2016-08-31T07:55:10.019Z,1936
2016-08-31T07:56:09.570Z,1936
2016-08-31T07:57:09.575Z,1936
2016-08-31T07:58:09.558Z,1936
2016-08-31T07:59:09.565Z,1940
2016-08-31T08:00:09.560Z,1928
2016-08-31T08:01:09.564Z,1928
2016-08-31T08:02:09.579Z,1928
2016-08-31T08:03:09.552Z,1924
2016-08-31T08:04:09.583Z,1924
2016-08-31T08:05:13.975Z,1920
2016-08-31T08:06:09.547Z,1920
2016-08-31T08:07:11.297Z,1920
2016-08-31T08:08:09.674Z,1912
2016-08-31T08:09:10.235Z,1912
2016-08-31T08:10:10.110Z,1916
2016-08-31T08:11:09.521Z,1912
2016-08-31T08:12:09.513Z,1912
2016-08-31T08:13:09.524Z,1908
2016-08-31T08:14:09.537Z,1908
2016-08-31T08:15:09.535Z,1908
2016-08-31T08:16:09.504Z,1904
2016-08-31T08:17:09.508Z,1904
2016-08-31T08:18:09.504Z,1900
2016-08-31T08:19:10.251Z,1900
2016-08-31T08:20:09.517Z,1896
2016-08-31T08:21:09.503Z,1896
2016-08-31T08:22:09.503Z,1892
2016-08-31T08:23:09.517Z,1892
2016-08-31T08:24:09.511Z,1888
2016-08-31T08:25:09.510Z,1888
2016-08-31T08:26:09.503Z,1892
2016-08-31T08:27:09.493Z,1896
2016-08-31T08:28:09.501Z,1892
2016-08-31T08:29:09.489Z,1892
2016-08-31T08:30:09.766Z,1896
2016-08-31T08:31:09.563Z,1892
2016-08-31T08:32:09.573Z,1896
2016-08-31T08:33:10.183Z,1892
2016-08-31T08:34:09.539Z,1892
2016-08-31T08:35:09.479Z,1892
2016-08-31T08:36:09.486Z,1896
2016-08-31T08:37:09.490Z,1896
2016-08-31T08:38:09.496Z,1888
2016-08-31T08:39:10.194Z,1888
2016-08-31T08:40:10.767Z,1892
2016-08-31T08:41:09.473Z,1892
2016-08-31T08:42:09.481Z,1896
2016-08-31T08:43:09.469Z,1896
2016-08-31T08:44:09.467Z,1896
2016-08-31T08:45:10.162Z,1896
2016-08-31T08:46:10.175Z,1896
2016-08-31T08:47:09.483Z,1896
2016-08-31T08:48:09.463Z,1892
2016-08-31T08:49:09.461Z,1896
2016-08-31T08:50:09.460Z,1888
2016-08-31T08:51:09.471Z,1888
2016-08-31T08:52:10.175Z,1884
2016-08-31T08:53:09.451Z,1884
2016-08-31T08:54:09.466Z,1884
2016-08-31T08:55:10.675Z,1884
2016-08-31T08:56:09.443Z,1888
2016-08-31T08:57:09.438Z,1884
2016-08-31T08:58:09.443Z,1884
2016-08-31T08:59:09.458Z,1880
2016-08-31T09:00:10.165Z,1884
2016-08-31T09:01:09.434Z,1884
2016-08-31T09:02:09.435Z,1880
2016-08-31T09:03:09.434Z,1880
2016-08-31T09:04:09.434Z,1876
2016-08-31T09:05:09.446Z,1876
2016-08-31T09:06:09.431Z,1876
2016-08-31T09:07:09.449Z,1876
2016-08-31T09:08:09.430Z,1872
2016-08-31T09:09:10.154Z,1872
2016-08-31T09:10:10.864Z,1868
2016-08-31T09:11:09.437Z,1864
2016-08-31T09:12:09.438Z,1864
2016-08-31T09:13:10.132Z,1864
2016-08-31T09:14:09.457Z,1860
2016-08-31T09:15:09.440Z,1864
2016-08-31T09:16:11.167Z,1856
2016-08-31T09:17:09.460Z,1856
2016-08-31T09:18:10.140Z,1852
2016-08-31T09:19:09.429Z,1852
2016-08-31T09:20:09.516Z,1852
2016-08-31T09:21:09.421Z,1856
2016-08-31T09:22:09.424Z,1852
2016-08-31T09:23:09.435Z,1856
2016-08-31T09:24:10.127Z,1856
2016-08-31T09:25:09.412Z,1852
2016-08-31T09:26:09.408Z,1860
2016-08-31T09:27:09.414Z,1860
2016-08-31T09:28:10.117Z,1860
2016-08-31T09:29:09.421Z,1864
2016-08-31T09:30:10.386Z,1864
2016-08-31T09:31:09.404Z,1864
2016-08-31T09:32:09.420Z,1864
2016-08-31T09:33:09.399Z,1856
2016-08-31T09:34:09.503Z,1852
2016-08-31T09:35:09.433Z,1852
2016-08-31T09:36:09.412Z,1852
2016-08-31T09:37:09.416Z,1852
2016-08-31T09:38:09.416Z,1852
2016-08-31T09:39:09.411Z,1852
2016-08-31T09:40:09.949Z,1852
2016-08-31T09:41:09.401Z,1848
2016-08-31T09:42:09.422Z,1844
2016-08-31T09:43:09.400Z,1844
2016-08-31T09:44:09.412Z,1848
2016-08-31T09:45:10.091Z,1844
2016-08-31T09:46:09.411Z,1844
2016-08-31T09:47:09.397Z,1840
2016-08-31T09:48:09.395Z,1840
2016-08-31T09:49:09.417Z,1836
2016-08-31T09:50:09.522Z,1832
2016-08-31T09:51:09.404Z,1828
2016-08-31T09:52:09.392Z,1824
2016-08-31T09:53:09.402Z,1820
2016-08-31T09:54:09.400Z,1824
2016-08-31T09:55:09.394Z,1820
2016-08-31T09:56:09.386Z,1820
2016-08-31T09:57:09.396Z,1820
2016-08-31T09:58:09.395Z,1816
2016-08-31T09:59:09.410Z,1812
2016-08-31T10:00:11.026Z,1808
2016-08-31T10:01:09.399Z,1812
2016-08-31T10:02:09.389Z,1816
2016-08-31T10:03:09.389Z,1812
2016-08-31T10:04:09.385Z,1816
2016-08-31T10:05:09.384Z,1812
2016-08-31T10:06:10.302Z,1812
2016-08-31T10:07:09.384Z,1812
2016-08-31T10:08:09.380Z,1812
2016-08-31T10:09:09.387Z,1812
2016-08-31T10:10:09.383Z,1804
2016-08-31T10:11:09.387Z,1808
2016-08-31T10:12:09.395Z,1812
2016-08-31T10:13:09.381Z,1804
2016-08-31T10:14:09.392Z,1804
2016-08-31T10:15:09.903Z,1804
2016-08-31T10:16:09.383Z,1804
2016-08-31T10:17:10.100Z,1804
2016-08-31T10:18:09.388Z,1796
2016-08-31T10:19:09.384Z,1804
2016-08-31T10:20:09.393Z,1800
2016-08-31T10:21:09.383Z,1800
2016-08-31T10:22:09.397Z,1804
2016-08-31T10:23:09.377Z,1804
2016-08-31T10:24:09.387Z,1804
2016-08-31T10:25:09.387Z,1804
2016-08-31T10:26:09.395Z,1812
2016-08-31T10:27:09.371Z,1820
2016-08-31T10:28:09.397Z,1836
2016-08-31T10:29:09.378Z,1856
2016-08-31T10:30:10.205Z,1852
2016-08-31T10:31:09.378Z,1844
2016-08-31T10:32:09.375Z,1844
2016-08-31T10:33:09.377Z,1828
2016-08-31T10:34:09.382Z,1808
2016-08-31T10:35:09.864Z,1796
2016-08-31T10:36:09.388Z,1796
2016-08-31T10:37:09.380Z,1788
2016-08-31T10:38:09.408Z,1792
2016-08-31T10:39:09.389Z,1788
2016-08-31T10:40:09.593Z,1784
2016-08-31T10:41:09.394Z,1784
2016-08-31T10:42:09.381Z,1784
2016-08-31T10:43:09.378Z,1780
2016-08-31T10:44:09.380Z,1780
2016-08-31T10:45:10.375Z,1776
2016-08-31T10:46:09.384Z,1772
2016-08-31T10:47:09.379Z,1776
2016-08-31T10:48:09.378Z,1772
2016-08-31T10:49:09.383Z,1768
2016-08-31T10:50:09.457Z,1760
2016-08-31T10:51:09.377Z,1768
2016-08-31T10:52:09.373Z,1764
2016-08-31T10:53:09.373Z,1768
2016-08-31T10:54:09.384Z,1760
2016-08-31T10:55:09.508Z,1764
2016-08-31T10:56:10.135Z,1760
2016-08-31T10:57:09.394Z,1756
2016-08-31T10:58:09.370Z,1760
2016-08-31T10:59:09.379Z,1764
2016-08-31T11:00:09.388Z,1764
2016-08-31T11:01:09.374Z,1764
2016-08-31T11:02:10.078Z,1764
2016-08-31T11:03:10.153Z,1756
2016-08-31T11:04:09.379Z,1756
2016-08-31T11:05:09.374Z,1760
2016-08-31T11:06:09.383Z,1748
2016-08-31T11:07:09.378Z,1744
2016-08-31T11:08:09.387Z,1748
2016-08-31T11:09:09.388Z,1748
2016-08-31T11:10:09.404Z,1744
2016-08-31T11:11:09.390Z,1748
2016-08-31T11:12:09.374Z,1744
2016-08-31T11:13:09.377Z,1744
2016-08-31T11:14:09.384Z,1740
2016-08-31T11:15:10.364Z,1728
2016-08-31T11:16:09.380Z,1740
2016-08-31T11:17:09.373Z,1732
2016-08-31T11:18:09.379Z,1736
2016-08-31T11:19:09.389Z,1732
2016-08-31T11:20:09.386Z,1728
2016-08-31T11:21:09.375Z,1732
2016-08-31T11:22:09.380Z,1732
2016-08-31T11:23:09.378Z,1728
2016-08-31T11:24:11.003Z,1732
2016-08-31T11:25:09.391Z,1732
2016-08-31T11:26:09.376Z,1736
2016-08-31T11:27:09.379Z,1732
2016-08-31T11:28:09.383Z,1724
2016-08-31T11:29:09.383Z,1728
2016-08-31T11:30:09.386Z,1728
2016-08-31T11:31:09.385Z,1720
2016-08-31T11:32:09.382Z,1716
2016-08-31T11:33:09.382Z,1712
2016-08-31T11:34:10.117Z,1712
2016-08-31T11:35:09.427Z,1716
2016-08-31T11:36:09.382Z,1704
2016-08-31T11:37:09.390Z,1712
2016-08-31T11:38:09.384Z,1712
2016-08-31T11:39:09.387Z,1708
2016-08-31T11:40:09.401Z,1700
2016-08-31T11:41:09.399Z,1700
2016-08-31T11:42:09.398Z,1700
2016-08-31T11:43:09.419Z,1700
2016-08-31T11:44:09.398Z,1704
2016-08-31T11:45:09.386Z,1700
2016-08-31T11:46:09.385Z,1708
2016-08-31T11:47:09.386Z,1704
2016-08-31T11:48:09.408Z,1708
2016-08-31T11:49:10.316Z,1704
2016-08-31T11:50:10.151Z,1700
2016-08-31T11:51:09.400Z,1696
2016-08-31T11:52:10.135Z,1696
2016-08-31T11:53:09.390Z,1692
2016-08-31T11:54:09.404Z,1688
2016-08-31T11:55:09.399Z,1692
2016-08-31T11:56:09.398Z,1692
2016-08-31T11:57:09.404Z,1692
2016-08-31T11:58:10.099Z,1688
2016-08-31T11:59:09.388Z,1688
2016-08-31T12:00:09.421Z,1688
2016-08-31T12:01:09.405Z,1680
2016-08-31T12:02:09.386Z,1676
2016-08-31T12:03:09.501Z,1676
2016-08-31T12:04:09.511Z,1688
2016-08-31T12:05:09.390Z,1688
2016-08-31T12:06:09.598Z,1680
2016-08-31T12:07:09.405Z,1688
2016-08-31T12:08:09.398Z,1680
2016-08-31T12:09:11.095Z,1672
2016-08-31T12:10:12.274Z,1672
2016-08-31T12:11:09.404Z,1680
2016-08-31T12:12:09.388Z,1676
2016-08-31T12:13:09.389Z,1680
2016-08-31T12:14:09.391Z,1680
2016-08-31T12:15:09.387Z,1684
2016-08-31T12:16:09.391Z,1680
2016-08-31T12:17:09.515Z,1684
2016-08-31T12:18:10.102Z,1680
2016-08-31T12:19:09.438Z,1684
2016-08-31T12:20:09.793Z,1672
2016-08-31T12:21:09.418Z,1668
2016-08-31T12:22:09.405Z,1672
2016-08-31T12:23:10.987Z,1648
2016-08-31T12:24:09.402Z,1668
2016-08-31T12:25:09.425Z,1544
2016-08-31T12:26:10.112Z,1668
2016-08-31T12:27:09.403Z,1672
2016-08-31T12:28:09.414Z,1656
2016-08-31T12:29:09.402Z,1664
2016-08-31T12:30:09.410Z,1660
2016-08-31T12:31:09.400Z,1624
2016-08-31T12:32:09.407Z,1644
2016-08-31T12:33:09.404Z,1628
2016-08-31T12:34:09.774Z,1636
2016-08-31T12:35:10.240Z,1636
2016-08-31T12:36:09.924Z,1648
2016-08-31T12:37:09.408Z,1648
2016-08-31T12:38:09.412Z,1648
2016-08-31T12:39:09.608Z,1648
2016-08-31T12:40:09.461Z,1652
2016-08-31T12:41:09.414Z,1652
2016-08-31T12:42:09.417Z,1652
2016-08-31T12:43:09.562Z,1668
2016-08-31T12:44:10.131Z,1652
2016-08-31T12:45:10.442Z,1652
2016-08-31T12:46:09.459Z,1660
2016-08-31T12:47:09.413Z,1656
2016-08-31T12:48:09.542Z,1656
2016-08-31T12:49:09.412Z,1652
2016-08-31T12:50:09.418Z,1656
2016-08-31T12:51:10.121Z,1656
2016-08-31T12:52:09.412Z,1656
2016-08-31T12:53:10.129Z,1660
2016-08-31T12:54:09.409Z,1664
2016-08-31T12:56:14.494Z,1660
2016-08-31T12:56:50.740Z,1660
2016-08-31T12:57:50.226Z,1660
2016-08-31T12:58:51.748Z,1656
2016-08-31T12:59:50.228Z,1664
2016-08-31T13:00:50.235Z,1668
2016-08-31T13:01:50.236Z,1656
2016-08-31T13:02:50.242Z,1656
2016-08-31T13:03:50.296Z,1660
2016-08-31T13:04:50.237Z,1656
2016-08-31T13:05:51.018Z,1656
2016-08-31T13:06:50.269Z,1652
2016-08-31T13:07:50.257Z,1656
2016-08-31T13:08:50.246Z,1656
2016-08-31T13:09:50.243Z,1656
2016-08-31T13:10:50.246Z,1652
2016-08-31T13:11:50.238Z,1656
2016-08-31T13:12:50.333Z,1656
2016-08-31T13:13:50.249Z,1648
2016-08-31T13:14:50.358Z,1656
2016-08-31T13:15:50.243Z,1652
2016-08-31T13:16:50.244Z,1640
2016-08-31T13:17:50.247Z,1644
2016-08-31T13:18:50.415Z,1644
2016-08-31T13:19:50.250Z,1640
2016-08-31T13:20:50.243Z,1644
2016-08-31T13:21:50.252Z,1644
2016-08-31T13:22:50.244Z,1640
2016-08-31T13:23:50.249Z,1648
2016-08-31T13:24:50.260Z,1636
2016-08-31T13:25:51.023Z,1644
2016-08-31T13:26:50.247Z,1616
2016-08-31T13:27:50.253Z,1604
2016-08-31T13:28:50.255Z,1608
2016-08-31T13:29:50.247Z,1636
2016-08-31T13:30:50.921Z,1636
2016-08-31T13:31:50.248Z,1636
2016-08-31T13:32:50.256Z,1640
2016-08-31T13:33:50.255Z,1640
2016-08-31T13:34:50.254Z,1644
2016-08-31T13:35:50.252Z,1640
2016-08-31T13:36:51.020Z,1640
2016-08-31T13:37:50.252Z,1640
2016-08-31T13:38:50.265Z,1636
2016-08-31T13:39:50.262Z,1632
2016-08-31T13:40:50.263Z,1644
2016-08-31T13:41:50.259Z,1628
2016-08-31T13:42:50.261Z,1636
2016-08-31T13:43:50.263Z,1636
2016-08-31T13:44:50.262Z,1636
2016-08-31T13:45:50.261Z,1640